Time;durP1;ratioP1;P1;durP2;ratioP2;P2;SDS_P1;SDS_P2;PMS_P1;PMS_P2;Temp;Humidity;BMP_temperature;BMP_pressure;BME280_temperature;BME280_humidity;BME280_pressure;Samples;Min_cycle;Max_cycle;Signal;HPM_P1;HPM_P2
2022/01/18 00:01:41;;;;;;;5.45;1.80;;;;;;;-0.48;100.00;142158.19;1528976;92;21054;-67
2022/01/18 00:04:07;;;;;;;5.20;2.00;;;;;;;-0.48;100.00;142158.19;1513210;93;21090;-66
2022/01/18 00:06:35;;;;;;;2.92;1.60;;;;;;;-0.47;100.00;142160.66;1527593;92;21101;-68
2022/01/18 00:09:03;;;;;;;4.72;1.70;;;;;;;-0.50;100.00;142153.22;1529260;92;21105;-62
2022/01/18 00:11:35;;;;;;;4.80;1.85;;;;;;;-0.49;100.00;142155.69;1529903;93;21085;-62
2022/01/18 00:14:02;;;;;;;2.80;1.40;;;;;;;-0.50;100.00;142153.22;1530638;91;21073;-62
2022/01/18 00:16:31;;;;;;;3.55;1.40;;;;;;;-0.51;100.00;142150.70;1529694;92;21081;-62
2022/01/18 00:19:06;;;;;;;4.83;1.67;;;;;;;-0.53;100.00;142145.77;1513864;93;21127;-62
2022/01/18 00:21:36;;;;;;;2.60;1.22;;;;;;;-0.53;100.00;142147.00;1530489;92;21080;-64
2022/01/18 00:23:58;;;;;;;1.37;0.98;;;;;;;-0.56;100.00;142139.56;1511804;92;21146;-64
2022/01/18 00:26:29;;;;;;;4.05;1.60;;;;;;;-0.60;100.00;142129.59;1526694;92;21218;-64
2022/01/18 00:29:02;;;;;;;2.92;1.27;;;;;;;-0.59;100.00;142130.84;1493950;94;21543;-63
2022/01/18 00:36:29;;;;;;;4.28;1.55;;;;;;;-0.80;100.00;142081.16;1525630;92;21143;-63
2022/01/18 00:38:56;;;;;;;2.92;1.37;;;;;;;-0.82;100.00;142076.17;1526570;92;21101;-64
2022/01/18 00:41:25;;;;;;;3.55;1.45;;;;;;;-0.93;100.00;142048.88;1509643;94;21134;-64
2022/01/18 00:43:53;;;;;;;3.77;1.52;;;;;;;-1.01;100.00;142029.02;1524673;94;21125;-64
2022/01/18 00:46:21;;;;;;;4.87;1.20;;;;;;;-1.08;100.00;142011.63;1509484;94;21153;-64
2022/01/18 00:48:51;;;;;;;2.25;1.25;;;;;;;-1.20;100.00;141984.28;1526823;93;21132;-64
2022/01/18 00:51:18;;;;;;;5.90;1.55;;;;;;;-1.37;100.00;141942.11;1509810;94;21074;-64
2022/01/18 00:53:46;;;;;;;3.72;1.40;;;;;;;-1.57;100.00;141894.92;1526893;92;21145;-64
2022/01/18 00:58:47;;;;;;;4.53;1.50;;;;;;;-2.01;100.00;141788.22;1524953;93;21105;-63
2022/01/18 01:01:15;;;;;;;4.40;2.00;;;;;;;-2.12;100.00;141760.89;1525830;94;21598;-63
2022/01/18 01:03:42;;;;;;;7.05;2.65;;;;;;;-2.17;100.00;141748.48;1526148;92;21611;-63
2022/01/18 01:06:09;;;;;;;5.65;2.37;;;;;;;-2.17;100.00;141748.48;1508530;93;21093;-64
2022/01/18 01:08:36;;;;;;;6.90;2.10;;;;;;;-2.20;100.00;141741.06;1524899;92;21149;-63
2022/01/18 01:11:05;;;;;;;4.12;1.62;;;;;;;-2.21;100.00;141738.59;1508657;94;21110;-63
2022/01/18 01:13:34;;;;;;;5.12;1.95;;;;;;;-2.21;100.00;141738.59;1527521;92;21109;-63
2022/01/18 01:19:02;;;;;;;5.85;2.35;;;;;;;-2.23;100.00;141733.63;1525749;92;21069;-64
2022/01/18 01:35:30;;;;;;;5.45;1.40;;;;;;;-2.42;100.00;141688.98;1481232;96;21114;-64
2022/01/18 01:45:34;;;;;;;2.98;1.65;;;;;;;-2.20;93.62;141741.06;1527690;92;21073;-64
2022/01/18 01:48:02;;;;;;;2.83;1.57;;;;;;;-2.18;91.40;141746.03;1527314;92;21598;-63
2022/01/18 01:50:43;;;;;;;5.20;1.92;;;;;;;-2.16;90.41;141749.72;1526351;93;21587;-63
2022/01/18 01:53:01;;;;;;;6.60;1.42;;;;;;;-2.18;88.62;141746.03;1509268;94;21136;-64
2022/01/18 01:55:27;;;;;;;5.62;1.77;;;;;;;-2.23;86.83;141733.63;1526574;92;21579;-65
2022/01/18 01:57:54;;;;;;;4.10;1.50;;;;;;;-2.24;86.95;141731.11;1525439;92;21109;-65
2022/01/18 02:00:22;;;;;;;4.28;1.17;;;;;;;-2.28;86.24;141721.22;1527085;92;21073;-65
2022/01/18 02:02:50;;;;;;;3.20;1.50;;;;;;;-2.34;85.88;141706.31;1525607;92;21102;-64
2022/01/18 02:05:20;;;;;;;5.70;1.55;;;;;;;-2.43;85.78;141686.47;1524805;92;21133;-64
2022/01/18 02:07:46;;;;;;;1.82;1.00;;;;;;;-2.50;86.51;141669.09;1526292;93;21101;-64
2022/01/18 02:10:13;;;;;;;2.50;1.20;;;;;;;-2.55;86.60;141656.70;1525827;92;21635;-63
2022/01/18 02:12:39;;;;;;;3.83;1.65;;;;;;;-2.57;86.63;141650.50;1526709;93;21097;-64
2022/01/18 02:15:19;;;;;;;7.12;1.70;;;;;;;-2.60;88.17;141644.30;1526577;92;21104;-66
2022/01/18 02:23:26;;;;;;;3.83;1.57;;;;;;;-2.62;90.09;141639.37;1548277;91;21141;-65
2022/01/18 02:25:54;;;;;;;3.35;1.50;;;;;;;-2.63;89.82;141636.88;1536627;92;21265;-65
2022/01/18 02:28:24;;;;;;;3.42;1.52;;;;;;;-2.67;88.90;141626.94;1547404;91;21069;-63
2022/01/18 02:30:51;;;;;;;4.58;1.55;;;;;;;-2.69;89.44;141622.02;1535823;92;21069;-63
2022/01/18 02:33:18;;;;;;;4.47;1.70;;;;;;;-2.70;91.35;141619.50;1546472;91;21042;-64
2022/01/18 02:35:47;;;;;;;9.13;2.85;;;;;;;-2.79;95.28;141597.22;1534738;92;21070;-64
2022/01/18 02:38:14;;;;;;;7.28;1.60;;;;;;;-3.05;96.22;141535.23;1546063;92;21089;-64
2022/01/18 02:40:41;;;;;;;5.65;1.95;;;;;;;-3.33;96.87;141468.31;1536142;92;21113;-64
2022/01/18 02:45:57;;;;;;;6.60;1.85;;;;;;;-3.53;98.18;141418.75;1536387;92;21081;-64
2022/01/18 02:48:25;;;;;;;3.33;1.40;;;;;;;-3.65;100.00;141389.00;1548408;91;21112;-64
2022/01/18 02:50:51;;;;;;;4.25;1.50;;;;;;;-3.87;100.00;141336.97;1535841;92;21130;-64
2022/01/18 02:53:18;;;;;;;4.25;1.40;;;;;;;-4.06;100.00;141289.94;1548426;91;21090;-64
2022/01/18 02:55:57;;;;;;;2.70;1.30;;;;;;;-4.22;100.00;141251.56;1547132;91;21202;-64
2022/01/18 02:58:28;;;;;;;3.72;1.30;;;;;;;-4.27;100.00;141239.17;1535521;92;21053;-63
2022/01/18 03:03:29;;;;;;;5.08;1.50;;;;;;;-4.29;100.00;141235.44;1546653;91;21140;-64
2022/01/18 03:05:57;;;;;;;4.85;1.60;;;;;;;-4.35;100.00;141220.61;1534963;92;21082;-64
2022/01/18 03:08:24;;;;;;;3.90;1.70;;;;;;;-4.34;100.00;141223.06;1546233;91;21103;-64
2022/01/18 03:10:50;;;;;;;5.35;2.00;;;;;;;-4.27;100.00;141239.17;1536619;93;21097;-64
2022/01/18 03:13:19;;;;;;;6.12;1.65;;;;;;;-4.21;100.00;141254.02;1547050;91;21639;-65
2022/01/18 03:15:46;;;;;;;3.40;1.55;;;;;;;-4.15;100.00;141268.86;1536230;92;21089;-65
2022/01/18 03:18:13;;;;;;;7.15;1.67;;;;;;;-4.09;100.00;141282.52;1547582;91;21136;-64
2022/01/18 03:20:40;;;;;;;1.95;1.20;;;;;;;-4.08;100.00;141284.97;1548213;91;21574;-63
2022/01/18 03:23:14;;;;;;;6.12;1.80;;;;;;;-4.16;100.00;141267.63;1535854;92;21559;-63
2022/01/18 03:28:07;;;;;;;8.20;1.32;;;;;;;-4.33;100.00;141224.30;1535617;92;21157;-63
2022/01/18 03:30:37;;;;;;;;;;;;;;;-4.46;100.00;141194.58;1511604;94;21114;-64
2022/01/18 03:33:07;;;;;;;4.90;1.52;;;;;;;-4.55;100.00;141171.05;1512664;94;20433;-64
2022/01/18 03:35:34;;;;;;;3.02;1.20;;;;;;;-4.57;100.00;141166.14;1509669;94;21123;-64
2022/01/18 03:38:01;;;;;;;2.77;1.00;;;;;;;-4.62;100.00;141154.98;1536795;92;21102;-64
2022/01/18 03:40:29;;;;;;;2.87;1.50;;;;;;;-4.62;100.00;141156.22;1536783;92;21085;-65
2022/01/18 03:42:58;;;;;;;2.95;1.15;;;;;;;-4.52;97.60;141178.52;1536885;92;21081;-64
2022/01/18 03:45:30;;;;;;;4.47;1.35;;;;;;;-4.41;95.35;141205.72;1536654;93;21078;-64
2022/01/18 03:48:02;;;;;;;5.03;1.90;;;;;;;-4.27;92.30;141239.17;1536833;92;21571;-64
2022/01/18 03:50:27;;;;;;;2.55;1.10;;;;;;;-4.19;89.00;141260.20;1537053;91;21085;-63
2022/01/18 03:52:55;;;;;;;2.62;1.20;;;;;;;-4.10;86.71;141280.00;1536056;92;21106;-64
2022/01/18 03:55:23;;;;;;;3.52;1.62;;;;;;;-4.03;83.58;141297.34;1536680;92;21125;-64
2022/01/18 03:57:50;;;;;;;6.05;1.65;;;;;;;-3.96;81.84;141315.94;1536637;92;21761;-64
2022/01/18 04:00:24;;;;;;;3.83;1.72;;;;;;;-3.88;81.37;141334.50;1535691;92;21567;-63
2022/01/18 04:02:52;;;;;;;4.87;1.70;;;;;;;-3.86;79.16;141339.47;1535609;92;21077;-63
2022/01/18 04:05:19;;;;;;;3.77;1.65;;;;;;;-3.82;78.91;141349.34;1535685;92;21077;-65
2022/01/18 04:07:47;;;;;;;3.02;1.42;;;;;;;-3.77;78.40;141361.73;1535446;92;21086;-64
2022/01/18 04:10:14;;;;;;;10.90;2.87;;;;;;;-3.74;77.65;141369.20;1535639;92;21073;-65
2022/01/18 04:12:41;;;;;;;2.55;1.20;;;;;;;-3.75;78.11;141366.69;1535415;92;21137;-64
2022/01/18 04:15:12;;;;;;;2.90;1.80;;;;;;;-3.77;78.78;141361.73;1535601;92;21086;-65
2022/01/18 04:26:01;;;;;;;3.52;1.50;;;;;;;-3.81;81.10;141351.84;1546432;92;21117;-64
2022/01/18 04:28:42;;;;;;;4.80;1.37;;;;;;;-3.80;81.04;141354.31;1536633;91;21148;-64
2022/01/18 04:31:08;;;;;;;4.08;1.47;;;;;;;-3.79;81.19;141356.81;1546922;91;21106;-63
2022/01/18 04:33:37;;;;;;;4.47;1.30;;;;;;;-3.76;81.09;141364.23;1547312;91;21145;-63
2022/01/18 04:36:06;;;;;;;4.25;1.10;;;;;;;-3.79;80.24;141356.81;1535853;92;21583;-64
2022/01/18 04:38:34;;;;;;;3.25;1.47;;;;;;;-3.81;80.32;141351.84;1546832;91;21069;-65
2022/01/18 04:41:06;;;;;;;3.77;1.40;;;;;;;-3.84;80.54;141344.44;1536595;92;21110;-64
2022/01/18 04:49:00;;;;;;;3.95;1.52;;;;;;;-3.89;80.59;141332.05;1546714;91;21109;-62
2022/01/18 04:51:27;;;;;;;4.20;1.50;;;;;;;-3.88;80.84;141333.28;1547154;91;21144;-64
2022/01/18 04:53:57;;;;;;;4.35;1.57;;;;;;;-3.85;81.01;141341.92;1547074;91;21157;-65
2022/01/18 04:59:05;;;;;;;6.22;1.70;;;;;;;-3.91;79.93;141325.84;1547326;92;21118;-61
2022/01/18 05:01:33;;;;;;;5.20;2.08;;;;;;;-3.89;80.24;141332.05;1535016;92;21089;-62
2022/01/18 05:04:00;;;;;;;2.65;1.32;;;;;;;-3.85;80.58;141341.92;1534357;92;21094;-62
2022/01/18 05:06:27;;;;;;;5.47;1.50;;;;;;;-3.79;80.45;141355.53;1545488;92;21089;-66
2022/01/18 05:08:54;;;;;;;3.65;1.30;;;;;;;-3.74;80.08;141367.92;1534642;92;21074;-65
2022/01/18 05:11:24;;;;;;;10.15;2.52;;;;;;;-3.80;79.52;141353.08;1534354;92;21126;-66
2022/01/18 05:14:24;;;;;;;6.75;3.85;;;;;;;-3.82;79.75;141349.34;1544632;92;21097;-65
2022/01/18 05:24:26;;;;;;;3.70;1.80;;;;;;;-3.81;77.94;141350.63;1534985;92;21092;-66
2022/01/18 05:26:55;;;;;;;3.05;1.25;;;;;;;-3.81;77.32;141351.84;1548898;92;21401;-65
2022/01/18 05:29:22;;;;;;;4.78;2.33;;;;;;;-3.82;75.76;141348.12;1547548;92;21081;-64
2022/01/18 05:31:49;;;;;;;5.65;2.15;;;;;;;-3.79;76.34;141356.81;1541750;91;21088;-64
2022/01/18 05:34:16;;;;;;;7.83;2.98;;;;;;;-3.75;75.80;141366.69;1529926;92;21733;-65
2022/01/18 05:36:43;;;;;;;6.50;2.65;;;;;;;-3.71;75.79;141375.39;1534822;92;21080;-65
2022/01/18 05:39:11;;;;;;;8.80;2.33;;;;;;;-3.67;75.34;141384.05;1508097;94;21081;-64
2022/01/18 05:41:40;;;;;;;6.30;2.02;;;;;;;-3.60;75.59;141401.41;1537485;92;21115;-64
2022/01/18 05:44:08;;;;;;;3.90;1.80;;;;;;;-3.60;74.55;141401.41;1550906;92;21089;-64
2022/01/18 05:46:35;;;;;;;6.15;2.25;;;;;;;-3.65;73.09;141390.23;1547042;91;21164;-64
2022/01/18 05:49:02;;;;;;;11.48;2.17;;;;;;;-3.64;73.50;141391.47;1547657;91;21587;-66
2022/01/18 05:51:31;;;;;;;5.33;2.42;;;;;;;-3.63;72.82;141395.20;1548480;92;21069;-66
2022/01/18 05:53:58;;;;;;;4.70;2.00;;;;;;;-3.66;72.37;141386.50;1551351;91;21084;-65
2022/01/18 05:56:24;;;;;;;5.33;2.02;;;;;;;-3.64;73.02;141391.47;1550345;91;21089;-65
2022/01/18 05:58:51;;;;;;;3.98;1.82;;;;;;;-3.64;73.46;141392.69;1531966;92;21085;-66
2022/01/18 06:01:26;;;;;;;6.25;2.33;;;;;;;-3.67;73.47;141384.05;1549346;91;21053;-66
2022/01/18 06:09:12;;;;;;;6.17;2.10;;;;;;;-3.67;74.12;141385.28;1539330;92;21123;-67
2022/01/18 06:11:41;;;;;;;6.70;1.60;;;;;;;-3.70;74.28;141377.84;1538258;92;21157;-64
2022/01/18 06:14:07;;;;;;;2.12;1.27;;;;;;;-3.73;74.16;141371.66;1530757;92;21089;-63
2022/01/18 06:16:34;;;;;;;4.83;1.95;;;;;;;-3.73;73.47;141371.66;1522776;94;21077;-64
2022/01/18 06:19:02;;;;;;;5.28;2.22;;;;;;;-3.74;73.30;141369.20;1527940;92;21043;-63
2022/01/18 06:21:29;;;;;;;6.75;2.72;;;;;;;-3.71;73.33;141376.62;1508410;94;21603;-65
2022/01/18 06:23:56;;;;;;;4.67;1.95;;;;;;;-3.71;73.61;141376.62;1538075;92;21076;-64
2022/01/18 06:26:22;;;;;;;4.47;1.75;;;;;;;-3.68;74.15;141381.59;1535033;92;21067;-64
2022/01/18 06:28:49;;;;;;;4.92;2.05;;;;;;;-3.62;74.94;141397.66;1531177;93;21101;-67
2022/01/18 06:31:15;;;;;;;3.80;1.50;;;;;;;-3.58;75.69;141406.36;1536435;92;21122;-63
2022/01/18 06:33:42;;;;;;;6.53;2.75;;;;;;;-3.58;76.33;141406.36;1536594;92;21144;-62
2022/01/18 06:36:09;;;;;;;9.00;2.60;;;;;;;-3.53;77.11;141418.75;1531684;92;21087;-61
2022/01/18 06:38:36;;;;;;;4.85;2.62;;;;;;;-3.45;76.75;141437.34;1508955;94;21047;-62
2022/01/18 06:41:04;;;;;;;10.50;3.90;;;;;;;-3.49;75.87;141428.63;1535558;92;21176;-62
2022/01/18 06:43:31;;;;;;;9.68;2.90;;;;;;;-3.46;76.88;141436.11;1535545;92;21489;-62
2022/01/18 06:45:58;;;;;;;10.18;4.60;;;;;;;-3.38;76.42;141454.69;1533493;92;21067;-62
2022/01/18 06:48:25;;;;;;;4.70;2.05;;;;;;;-3.34;75.78;141465.80;1530502;93;21156;-62
2022/01/18 06:50:52;;;;;;;6.00;2.25;;;;;;;-3.38;75.79;141454.69;1534030;92;21064;-62
2022/01/18 06:53:18;;;;;;;5.15;2.10;;;;;;;-3.36;75.86;141460.88;1533785;92;21184;-62
2022/01/18 06:55:51;;;;;;;6.40;2.30;;;;;;;-3.42;74.67;141444.75;1534306;92;21133;-62
2022/01/18 06:58:13;;;;;;;5.87;2.25;;;;;;;-3.42;75.07;141444.75;1533581;92;21204;-61
2022/01/18 07:00:40;;;;;;;7.50;2.55;;;;;;;-3.39;74.64;141453.41;1533532;92;21063;-61
2022/01/18 07:03:06;;;;;;;5.45;2.02;;;;;;;-3.29;74.68;141478.19;1534420;92;21317;-62
2022/01/18 07:05:33;;;;;;;8.63;2.98;;;;;;;-3.21;73.42;141496.78;1533527;92;21591;-62
2022/01/18 07:08:00;;;;;;;4.75;2.00;;;;;;;-3.27;73.08;141483.16;1504472;95;21077;-63
2022/01/18 07:10:31;;;;;;;4.33;1.90;;;;;;;-3.23;72.84;141490.59;1506476;94;21076;-64
2022/01/18 07:12:58;;;;;;;6.25;2.37;;;;;;;-2.84;72.41;141586.05;1534227;91;21094;-63
2022/01/18 07:15:24;;;;;;;7.10;2.20;;;;;;;-2.71;71.53;141617.05;1531343;92;21059;-63
2022/01/18 07:17:51;;;;;;;6.00;2.40;;;;;;;-2.39;70.41;141695.19;1533880;92;21578;-63
2022/01/18 07:20:17;;;;;;;6.28;2.40;;;;;;;-1.98;68.64;141795.66;1504506;95;21626;-62
2022/01/18 07:22:43;;;;;;;5.22;2.35;;;;;;;-1.67;67.21;141868.87;1508219;94;21158;-63
2022/01/18 07:25:11;;;;;;;4.22;1.80;;;;;;;-1.61;66.18;141884.97;1530075;93;21136;-65
2022/01/18 07:27:39;;;;;;;4.08;1.90;;;;;;;-1.97;65.54;141796.88;1525861;93;21090;-63
2022/01/18 07:30:07;;;;;;;5.97;2.17;;;;;;;-1.84;65.96;141827.89;1532540;93;21112;-61
2022/01/18 07:32:35;;;;;;;7.50;2.20;;;;;;;-1.22;64.68;141979.34;1532862;92;21078;-62
2022/01/18 07:35:03;;;;;;;4.97;2.15;;;;;;;-0.49;62.68;142155.69;1531010;93;21063;-61
2022/01/18 07:37:30;;;;;;;4.67;2.50;;;;;;;-0.30;60.62;142202.91;1532652;92;21118;-60
2022/01/18 07:39:57;;;;;;;4.67;2.30;;;;;;;-0.79;61.36;142083.66;1535873;92;21146;-61
2022/01/18 07:42:23;;;;;;;5.47;2.22;;;;;;;-1.29;61.79;141961.95;1535653;92;21564;-62
2022/01/18 07:44:51;;;;;;;4.85;2.20;;;;;;;-1.82;62.59;141834.09;1516098;93;21104;-61
2022/01/18 07:47:19;;;;;;;7.58;2.55;;;;;;;-2.21;63.90;141739.81;1534425;92;21021;-62
2022/01/18 07:49:47;;;;;;;6.67;2.98;;;;;;;-2.41;65.22;141690.22;1535399;92;21090;-62
2022/01/18 07:52:15;;;;;;;6.65;2.87;;;;;;;-2.56;65.81;141653.02;1518779;92;21125;-62
2022/01/18 07:54:42;;;;;;;6.20;2.77;;;;;;;-2.62;66.72;141639.37;1536177;92;21597;-61
2022/01/18 07:57:11;;;;;;;6.78;3.02;;;;;;;-2.67;66.17;141628.22;1535379;92;21247;-60
2022/01/18 07:59:37;;;;;;;8.65;3.15;;;;;;;-2.50;66.08;141669.09;1534682;92;21555;-62
2022/01/18 08:02:04;;;;;;;7.70;2.87;;;;;;;-1.15;63.25;141996.69;1535466;92;21081;-61
2022/01/18 08:04:31;;;;;;;7.00;2.52;;;;;;;0.16;59.79;142314.77;1539097;90;21190;-60
2022/01/18 08:06:58;;;;;;;6.55;3.00;;;;;;;0.78;55.69;142463.97;1535117;92;21122;-61
2022/01/18 08:09:25;;;;;;;7.12;2.58;;;;;;;0.68;55.29;142440.34;1512070;94;21162;-61
2022/01/18 08:11:52;;;;;;;6.33;2.30;;;;;;;0.66;54.76;142435.36;1535556;92;21058;-62
2022/01/18 08:14:19;;;;;;;7.08;2.92;;;;;;;1.00;53.16;142518.72;1535675;93;21074;-61
2022/01/18 08:17:00;;;;;;;6.67;3.45;;;;;;;1.23;52.11;142574.70;1535279;92;21069;-61
2022/01/18 08:19:20;;;;;;;6.80;3.12;;;;;;;1.04;52.16;142528.69;1535632;92;21206;-60
2022/01/18 08:21:47;;;;;;;8.40;2.92;;;;;;;0.89;52.44;142491.38;1535123;92;21122;-61
2022/01/18 08:24:13;;;;;;;5.55;2.33;;;;;;;0.76;52.72;142459.00;1535119;93;21206;-61
2022/01/18 08:26:40;;;;;;;5.92;3.15;;;;;;;-0.02;53.38;142270.03;1535117;92;21150;-61
2022/01/18 08:29:11;;;;;;;8.60;2.40;;;;;;;-0.47;54.87;142160.66;1551526;92;21065;-63
2022/01/18 08:31:37;;;;;;;8.23;1.95;;;;;;;-0.93;55.39;142050.11;1535375;92;21547;-61
2022/01/18 08:34:03;;;;;;;10.80;2.80;;;;;;;-1.39;57.01;141937.13;1545976;92;21056;-60
2022/01/18 08:36:40;;;;;;;5.37;2.45;;;;;;;-1.59;58.42;141889.94;1535696;92;21047;-61
